createdAt,value
2019-06-26T00:01:54.057Z,14.93
2019-06-26T00:04:22.553Z,13.65
2019-06-26T00:06:51.081Z,14.15
2019-06-26T00:09:19.644Z,15.32
2019-06-26T00:11:48.125Z,13.88
2019-06-26T00:14:16.603Z,14.00
2019-06-26T00:16:45.126Z,14.40
2019-06-26T00:19:13.596Z,12.68
2019-06-26T00:21:42.104Z,17.35
2019-06-26T00:24:10.590Z,13.50
2019-06-26T00:26:39.094Z,17.37
2019-06-26T00:29:07.584Z,14.80
2019-06-26T00:31:36.091Z,15.10
2019-06-26T00:34:04.641Z,12.65
2019-06-26T00:36:33.146Z,18.92
2019-06-26T00:39:01.632Z,14.55
2019-06-26T00:41:30.140Z,13.68
2019-06-26T00:43:58.630Z,16.05
2019-06-26T00:46:27.132Z,15.18
2019-06-26T00:48:55.616Z,17.62
2019-06-26T00:51:24.266Z,13.83
2019-06-26T00:53:52.750Z,15.60
2019-06-26T00:56:21.241Z,15.25
2019-06-26T00:58:49.723Z,19.65
2019-06-26T01:01:18.235Z,15.90
2019-06-26T01:03:48.477Z,14.55
2019-06-26T01:06:34.797Z,18.98
2019-06-26T01:09:03.368Z,17.57
2019-06-26T01:11:31.882Z,17.05
2019-06-26T01:14:00.336Z,15.23
2019-06-26T01:16:28.848Z,15.00
2019-06-26T01:18:57.326Z,16.45
2019-06-26T01:21:26.000Z,14.68
2019-06-26T01:23:54.482Z,17.12
2019-06-26T01:26:22.986Z,15.28
2019-06-26T01:28:51.460Z,18.82
2019-06-26T01:31:20.146Z,15.85
2019-06-26T01:33:48.700Z,19.70
2019-06-26T01:36:17.210Z,17.67
2019-06-26T01:38:45.692Z,14.20
2019-06-26T01:41:14.250Z,19.45
2019-06-26T01:43:42.687Z,17.42
2019-06-26T01:46:11.205Z,15.93
2019-06-26T01:48:39.680Z,18.20
2019-06-26T01:51:08.194Z,18.35
2019-06-26T01:53:36.680Z,16.95
2019-06-26T01:56:05.183Z,17.45
2019-06-26T01:58:33.672Z,16.37
2019-06-26T02:01:02.183Z,16.60
2019-06-26T02:03:30.667Z,15.85
2019-06-26T02:05:59.178Z,17.15
2019-06-26T02:08:27.657Z,16.60
2019-06-26T02:10:56.168Z,21.90
2019-06-26T02:13:24.654Z,18.27
2019-06-26T02:15:53.154Z,18.25
2019-06-26T02:18:34.797Z,16.25
2019-06-26T02:21:03.312Z,17.73
2019-06-26T02:23:31.789Z,19.05
2019-06-26T02:26:00.261Z,19.65
2019-06-26T02:28:28.837Z,17.95
2019-06-26T02:30:57.316Z,18.52
2019-06-26T02:33:25.816Z,20.85
2019-06-26T02:35:54.299Z,19.57
2019-06-26T02:38:22.805Z,17.70
2019-06-26T02:40:51.284Z,16.77
2019-06-26T02:43:19.792Z,20.95
2019-06-26T02:45:48.303Z,18.27
2019-06-26T02:48:16.779Z,17.27
2019-06-26T02:50:45.263Z,17.62
2019-06-26T02:53:13.772Z,18.25
2019-06-26T02:55:42.778Z,22.20
2019-06-26T02:58:11.283Z,19.07
2019-06-26T03:00:39.761Z,19.50
2019-06-26T03:03:08.275Z,17.85
2019-06-26T03:05:36.775Z,20.40
2019-06-26T03:08:05.329Z,16.00
2019-06-26T03:10:33.839Z,15.72
2019-06-26T03:13:02.350Z,16.65
2019-06-26T03:15:30.826Z,22.40
2019-06-26T03:17:59.348Z,16.23
2019-06-26T03:20:30.868Z,19.25
2019-06-26T03:22:59.415Z,19.50
2019-06-26T03:25:27.864Z,16.05
2019-06-26T03:27:56.362Z,16.62
2019-06-26T03:30:24.921Z,17.10
2019-06-26T03:32:53.435Z,17.48
2019-06-26T03:35:21.913Z,19.50
2019-06-26T03:37:50.422Z,17.50
2019-06-26T03:40:19.061Z,16.20
2019-06-26T03:42:47.578Z,18.42
2019-06-26T03:45:25.619Z,22.20
2019-06-26T03:47:46.402Z,19.57
2019-06-26T03:50:15.020Z,18.10
2019-06-26T03:52:43.527Z,17.17
2019-06-26T03:55:12.186Z,17.40
2019-06-26T03:57:40.754Z,16.20
2019-06-26T04:00:10.106Z,18.07
2019-06-26T04:02:38.675Z,18.82
2019-06-26T04:05:08.010Z,18.15
2019-06-26T04:07:36.503Z,18.85
2019-06-26T04:10:08.327Z,18.98
2019-06-26T04:12:36.804Z,17.07
2019-06-26T04:15:07.349Z,16.85
2019-06-26T04:17:35.956Z,19.75
2019-06-26T04:20:08.900Z,16.85
2019-06-26T04:22:37.391Z,17.37
2019-06-26T04:25:09.200Z,17.07
2019-06-26T04:27:37.690Z,18.23
2019-06-26T04:30:10.597Z,17.30
2019-06-26T04:32:39.268Z,17.82
2019-06-26T04:35:08.016Z,17.05
2019-06-26T04:37:36.497Z,18.52
2019-06-26T04:40:07.239Z,17.23
2019-06-26T04:42:35.722Z,17.60
2019-06-26T04:45:06.656Z,16.50
2019-06-26T04:47:35.402Z,16.60
2019-06-26T04:50:09.260Z,16.23
2019-06-26T04:52:37.794Z,17.92
2019-06-26T04:55:10.333Z,17.25
2019-06-26T04:57:39.289Z,17.10
2019-06-26T05:00:09.323Z,18.92
2019-06-26T05:02:37.937Z,17.32
2019-06-26T05:05:07.775Z,16.85
2019-06-26T05:07:36.249Z,18.40
2019-06-26T05:10:07.092Z,17.07
2019-06-26T05:12:35.572Z,19.23
2019-06-26T05:15:07.135Z,16.50
2019-06-26T05:17:35.615Z,16.55
2019-06-26T05:20:09.663Z,16.27
2019-06-26T05:22:38.140Z,17.30
2019-06-26T05:25:08.280Z,17.75
2019-06-26T05:27:36.772Z,16.37
2019-06-26T05:30:08.870Z,17.10
2019-06-26T05:32:37.355Z,19.82
2019-06-26T05:35:07.808Z,16.48
2019-06-26T05:37:36.274Z,17.37
2019-06-26T05:40:12.833Z,16.85
2019-06-26T05:42:41.274Z,16.87
2019-06-26T05:45:10.846Z,17.35
2019-06-26T05:47:39.371Z,16.35
2019-06-26T05:50:08.613Z,16.42
2019-06-26T05:52:37.164Z,17.67
2019-06-26T05:55:07.303Z,17.15
2019-06-26T05:57:35.775Z,17.37
2019-06-26T06:00:07.330Z,17.45
2019-06-26T06:02:35.810Z,18.55
2019-06-26T06:05:06.160Z,16.80
2019-06-26T06:07:34.669Z,16.65
2019-06-26T06:10:03.730Z,17.27
2019-06-26T06:12:32.199Z,16.80
2019-06-26T06:15:00.677Z,17.42
2019-06-26T06:17:29.182Z,19.05
2019-06-26T06:19:57.688Z,16.95
2019-06-26T06:22:27.546Z,17.27
2019-06-26T06:24:56.273Z,17.05
2019-06-26T06:27:24.739Z,17.80
2019-06-26T06:29:53.291Z,17.92
2019-06-26T06:32:21.794Z,17.00
2019-06-26T06:34:50.309Z,16.65
2019-06-26T06:37:18.794Z,16.55
2019-06-26T06:39:47.371Z,17.23
2019-06-26T06:42:15.852Z,16.00
2019-06-26T06:44:44.352Z,16.62
2019-06-26T06:47:12.845Z,16.70
2019-06-26T06:49:41.346Z,16.32
2019-06-26T06:52:09.832Z,16.70
2019-06-26T06:54:38.337Z,21.33
2019-06-26T06:57:06.820Z,18.42
2019-06-26T06:59:35.316Z,17.20
2019-06-26T07:02:03.817Z,16.62
2019-06-26T07:04:32.305Z,16.45
2019-06-26T07:07:00.785Z,16.97
2019-06-26T07:09:29.285Z,17.73
2019-06-26T07:11:57.764Z,18.48
2019-06-26T07:14:26.271Z,16.67
2019-06-26T07:16:54.749Z,16.05
2019-06-26T07:19:23.296Z,16.65
2019-06-26T07:21:51.801Z,17.02
2019-06-26T07:24:20.333Z,16.80
2019-06-26T07:26:48.785Z,18.32
2019-06-26T07:29:17.263Z,16.67
2019-06-26T07:31:45.771Z,16.73
2019-06-26T07:34:14.258Z,17.15
2019-06-26T07:36:42.764Z,15.83
2019-06-26T07:39:11.243Z,17.23
2019-06-26T07:41:39.756Z,16.50
2019-06-26T07:44:08.231Z,15.85
2019-06-26T07:46:36.758Z,17.82
2019-06-26T07:49:05.283Z,16.55
2019-06-26T07:51:33.868Z,17.20
2019-06-26T07:54:02.353Z,20.75
2019-06-26T07:56:30.869Z,16.80
2019-06-26T07:58:59.364Z,16.85
2019-06-26T08:01:27.927Z,17.62
2019-06-26T08:03:56.405Z,15.90
2019-06-26T08:06:24.913Z,15.93
2019-06-26T08:08:53.394Z,16.23
2019-06-26T08:11:21.962Z,17.23
2019-06-26T08:13:50.456Z,19.55
2019-06-26T08:16:18.957Z,15.63
2019-06-26T08:18:47.438Z,16.62
2019-06-26T08:21:15.950Z,16.25
2019-06-26T08:23:44.416Z,16.52
2019-06-26T08:26:12.993Z,16.77
2019-06-26T08:28:41.482Z,15.88
2019-06-26T08:31:10.069Z,16.05
2019-06-26T08:33:38.605Z,15.58
2019-06-26T08:36:07.104Z,15.60
2019-06-26T08:38:35.588Z,17.52
2019-06-26T08:41:04.089Z,15.75
2019-06-26T08:43:32.567Z,15.00
2019-06-26T08:46:01.109Z,15.23
2019-06-26T08:48:39.654Z,15.10
2019-06-26T08:50:59.835Z,14.73
2019-06-26T08:53:28.308Z,14.33
2019-06-26T08:55:56.815Z,15.70
2019-06-26T08:58:25.279Z,15.23
2019-06-26T09:00:53.801Z,16.60
2019-06-26T09:03:22.306Z,15.30
2019-06-26T09:05:50.812Z,14.38
2019-06-26T09:08:19.420Z,16.73
2019-06-26T09:10:48.051Z,14.90
2019-06-26T09:13:16.553Z,14.38
2019-06-26T09:15:49.390Z,14.93
2019-06-26T09:18:15.266Z,14.40
2019-06-26T09:20:43.845Z,15.30
2019-06-26T09:23:12.324Z,14.85
2019-06-26T09:25:40.796Z,14.68
2019-06-26T09:28:09.301Z,15.83
2019-06-26T09:30:37.776Z,14.07
2019-06-26T09:33:06.278Z,18.20
2019-06-26T09:35:34.758Z,14.43
2019-06-26T09:38:03.271Z,14.65
2019-06-26T09:40:32.267Z,13.45
2019-06-26T09:43:00.928Z,12.20
2019-06-26T09:45:29.479Z,11.10
2019-06-26T09:47:57.991Z,10.95
2019-06-26T09:50:26.463Z,10.53
2019-06-26T09:52:54.959Z,8.85
2019-06-26T09:55:23.495Z,8.83
2019-06-26T09:57:51.986Z,8.53
2019-06-26T10:00:22.713Z,12.33
2019-06-26T10:02:51.193Z,9.20
2019-06-26T10:05:20.045Z,9.50
2019-06-26T10:07:48.719Z,8.70
2019-06-26T10:10:17.427Z,9.23
2019-06-26T10:12:45.928Z,10.30
2019-06-26T10:15:15.741Z,8.95
2019-06-26T10:17:44.468Z,9.15
2019-06-26T10:20:13.088Z,9.20
2019-06-26T10:22:41.578Z,9.05
2019-06-26T10:25:11.551Z,10.55
2019-06-26T10:27:40.444Z,10.30
2019-06-26T10:30:09.451Z,9.60
2019-06-26T10:32:37.950Z,9.03
2019-06-26T10:35:06.665Z,10.00
2019-06-26T10:37:35.148Z,9.85
2019-06-26T10:40:04.058Z,8.50
2019-06-26T10:42:32.543Z,7.72
2019-06-26T10:45:01.028Z,12.35
2019-06-26T10:47:29.629Z,7.33
2019-06-26T10:49:58.072Z,8.03
2019-06-26T10:52:26.568Z,8.45
2019-06-26T10:54:55.033Z,9.93
2019-06-26T10:57:23.673Z,10.20
2019-06-26T10:59:55.552Z,11.35
2019-06-26T11:02:22.434Z,8.40
2019-06-26T11:04:50.958Z,7.70
2019-06-26T11:07:19.505Z,8.13
2019-06-26T11:09:48.030Z,8.43
2019-06-26T11:12:16.515Z,8.40
2019-06-26T11:14:45.067Z,7.60
2019-06-26T11:17:13.535Z,9.35
2019-06-26T11:19:44.241Z,7.78
2019-06-26T11:22:12.239Z,10.05
2019-06-26T11:24:40.750Z,8.40
2019-06-26T11:27:09.287Z,9.98
2019-06-26T11:29:37.785Z,9.88
2019-06-26T11:32:09.390Z,7.95
2019-06-26T11:34:36.474Z,8.43
2019-06-26T11:37:04.948Z,7.83
2019-06-26T11:39:33.435Z,8.83
2019-06-26T11:42:01.902Z,8.83
2019-06-26T11:44:30.403Z,8.03
2019-06-26T11:46:58.941Z,7.40
2019-06-26T11:49:27.443Z,7.50
2019-06-26T11:51:55.911Z,7.30
2019-06-26T11:54:24.422Z,6.90
2019-06-26T11:56:52.872Z,6.12
2019-06-26T11:59:21.369Z,6.35
2019-06-26T12:01:49.873Z,7.47
2019-06-26T12:04:18.376Z,6.20
2019-06-26T12:06:46.850Z,10.13
2019-06-26T12:09:15.346Z,6.85
2019-06-26T12:11:43.837Z,5.67
2019-06-26T12:14:12.683Z,6.25
2019-06-26T12:16:41.158Z,6.08
2019-06-26T12:19:09.653Z,6.92
2019-06-26T12:21:38.136Z,7.15
2019-06-26T12:24:06.611Z,5.78
2019-06-26T12:26:35.163Z,6.15
2019-06-26T12:29:03.727Z,6.42
2019-06-26T12:31:32.221Z,7.03
2019-06-26T12:34:00.791Z,6.83
2019-06-26T12:36:29.261Z,6.10
2019-06-26T12:38:57.763Z,6.92
2019-06-26T12:41:26.222Z,5.95
2019-06-26T12:43:54.733Z,6.58
2019-06-26T12:46:23.200Z,6.60
2019-06-26T12:48:51.702Z,8.18
2019-06-26T12:51:20.174Z,6.33
2019-06-26T12:53:48.739Z,8.00
2019-06-26T12:56:17.205Z,7.17
2019-06-26T12:58:45.694Z,7.53
2019-06-26T13:01:14.175Z,10.35
2019-06-26T13:03:42.782Z,7.37
2019-06-26T13:06:11.219Z,9.40
2019-06-26T13:08:39.697Z,9.20
2019-06-26T13:11:08.208Z,6.65
2019-06-26T13:13:36.731Z,7.42
2019-06-26T13:16:05.301Z,9.40
2019-06-26T13:18:33.761Z,9.90
2019-06-26T13:21:04.998Z,9.43
2019-06-26T13:23:32.447Z,6.92
2019-06-26T13:26:00.929Z,7.47
2019-06-26T13:28:29.400Z,11.18
2019-06-26T13:30:57.903Z,10.40
2019-06-26T13:33:26.398Z,8.25
2019-06-26T13:35:55.673Z,8.50
2019-06-26T13:38:27.100Z,8.68
2019-06-26T13:40:54.431Z,9.78
2019-06-26T13:43:22.889Z,7.35
2019-06-26T13:45:51.387Z,7.28
2019-06-26T13:48:19.862Z,12.33
2019-06-26T13:50:48.381Z,9.38
2019-06-26T13:53:16.836Z,8.70
2019-06-26T13:55:45.330Z,8.05
2019-06-26T13:58:13.806Z,9.70
2019-06-26T14:00:42.315Z,9.08
2019-06-26T14:03:10.784Z,10.90
2019-06-26T14:05:39.270Z,8.45
2019-06-26T14:08:07.749Z,8.23
2019-06-26T14:10:36.270Z,8.00
2019-06-26T14:13:04.742Z,9.28
2019-06-26T14:15:33.308Z,9.18
2019-06-26T14:18:01.781Z,8.83
2019-06-26T14:20:30.270Z,8.15
2019-06-26T14:22:58.758Z,8.70
2019-06-26T14:25:27.240Z,9.03
2019-06-26T14:27:55.708Z,8.03
2019-06-26T14:30:27.699Z,11.18
2019-06-26T14:32:54.540Z,8.53
2019-06-26T14:35:23.052Z,9.48
2019-06-26T14:37:51.517Z,8.08
2019-06-26T14:40:20.403Z,11.35
2019-06-26T14:42:49.112Z,11.55
2019-06-26T14:45:17.654Z,11.15
2019-06-26T14:47:46.125Z,12.37
2019-06-26T14:50:14.769Z,12.07
2019-06-26T14:52:45.869Z,9.73
2019-06-26T14:55:13.996Z,9.83
2019-06-26T14:57:42.457Z,8.80
2019-06-26T15:00:11.441Z,10.43
2019-06-26T15:02:39.955Z,11.35
2019-06-26T15:05:09.886Z,8.35
2019-06-26T15:07:38.384Z,9.63
2019-06-26T15:10:10.008Z,9.25
2019-06-26T15:12:38.507Z,7.45
2019-06-26T15:15:07.802Z,10.80
2019-06-26T15:17:36.503Z,8.00
2019-06-26T15:20:06.418Z,9.80
2019-06-26T15:22:34.917Z,10.45
2019-06-26T15:25:04.738Z,13.15
2019-06-26T15:27:33.238Z,8.65
2019-06-26T15:30:01.715Z,11.50
2019-06-26T15:32:30.207Z,8.58
2019-06-26T15:34:58.693Z,9.53
2019-06-26T15:37:27.194Z,11.12
2019-06-26T15:39:55.662Z,12.85
2019-06-26T15:42:24.159Z,12.23
2019-06-26T15:44:52.687Z,13.95
2019-06-26T15:47:21.223Z,9.65
2019-06-26T15:49:49.693Z,13.48
2019-06-26T15:52:18.195Z,10.00
2019-06-26T15:54:46.674Z,13.48
2019-06-26T15:57:15.174Z,9.93
2019-06-26T15:59:43.650Z,14.40
2019-06-26T16:02:12.145Z,10.78
2019-06-26T16:04:40.693Z,13.50
2019-06-26T16:07:09.209Z,9.65
2019-06-26T16:09:37.701Z,10.32
2019-06-26T16:12:06.271Z,9.23
2019-06-26T16:14:34.744Z,10.58
2019-06-26T16:17:10.793Z,9.00
2019-06-26T16:19:39.280Z,10.35
2019-06-26T16:22:07.798Z,12.88
2019-06-26T16:24:36.254Z,10.10
2019-06-26T16:27:04.749Z,13.03
2019-06-26T16:29:33.228Z,9.48
2019-06-26T16:32:01.744Z,11.48
2019-06-26T16:34:30.216Z,11.22
2019-06-26T16:36:58.728Z,13.95
2019-06-26T16:39:27.209Z,10.72
2019-06-26T16:41:55.712Z,13.22
2019-06-26T16:44:24.189Z,11.12
2019-06-26T16:46:52.692Z,13.10
2019-06-26T16:49:21.174Z,11.10
2019-06-26T16:51:49.680Z,11.45
2019-06-26T16:54:18.159Z,10.63
2019-06-26T16:56:46.654Z,8.93
2019-06-26T16:59:15.133Z,10.38
2019-06-26T17:01:43.685Z,11.43
2019-06-26T17:04:12.196Z,12.10
2019-06-26T17:06:40.670Z,10.75
2019-06-26T17:09:09.712Z,12.23
2019-06-26T17:11:38.282Z,11.68
2019-06-26T17:14:06.867Z,13.28
2019-06-26T17:16:35.346Z,14.73
2019-06-26T17:19:03.858Z,11.00
2019-06-26T17:21:32.539Z,11.95
2019-06-26T17:24:01.092Z,11.48
2019-06-26T17:26:29.566Z,12.55
2019-06-26T17:28:58.074Z,10.35
2019-06-26T17:31:28.199Z,11.10
2019-06-26T17:33:56.696Z,12.07
2019-06-26T17:36:28.669Z,11.05
2019-06-26T17:38:55.393Z,11.73
2019-06-26T17:41:23.865Z,8.95
2019-06-26T17:43:52.369Z,11.10
2019-06-26T17:46:20.836Z,12.15
2019-06-26T17:48:49.338Z,12.33
2019-06-26T17:51:17.813Z,10.58
2019-06-26T17:53:46.312Z,12.23
2019-06-26T17:56:14.791Z,10.35
2019-06-26T17:58:43.296Z,11.28
2019-06-26T18:01:11.844Z,8.83
2019-06-26T18:03:40.341Z,9.93
2019-06-26T18:06:08.822Z,13.50
2019-06-26T18:08:37.991Z,16.55
2019-06-26T18:11:06.461Z,9.75
2019-06-26T18:13:34.969Z,9.00
2019-06-26T18:16:03.453Z,11.20
2019-06-26T18:18:31.960Z,13.10
2019-06-26T18:21:00.435Z,11.25
2019-06-26T18:23:37.555Z,12.70
2019-06-26T18:26:12.529Z,10.93
2019-06-26T18:28:29.366Z,12.33
2019-06-26T18:30:57.847Z,12.93
2019-06-26T18:33:26.345Z,13.48
2019-06-26T18:35:54.822Z,16.40
2019-06-26T18:38:23.315Z,15.50
2019-06-26T18:40:51.877Z,12.05
2019-06-26T18:43:20.375Z,12.55
2019-06-26T18:45:48.851Z,15.75
2019-06-26T18:48:17.359Z,15.50
2019-06-26T18:50:45.841Z,10.05
2019-06-26T18:53:14.322Z,15.50
2019-06-26T18:55:42.829Z,12.78
2019-06-26T18:58:11.339Z,12.18
2019-06-26T19:00:39.857Z,12.23
2019-06-26T19:03:08.311Z,17.42
2019-06-26T19:05:36.808Z,17.07
2019-06-26T19:08:05.441Z,15.55
2019-06-26T19:10:33.944Z,14.60
2019-06-26T19:13:02.416Z,12.43
2019-06-26T19:15:30.924Z,12.33
2019-06-26T19:17:59.411Z,15.45
2019-06-26T19:20:27.924Z,14.98
2019-06-26T19:22:56.393Z,15.35
2019-06-26T19:25:24.896Z,13.88
2019-06-26T19:27:53.379Z,11.68
2019-06-26T19:30:22.021Z,12.05
2019-06-26T19:32:50.522Z,12.07
2019-06-26T19:35:20.017Z,17.42
2019-06-26T19:37:48.924Z,15.53
2019-06-26T19:40:17.585Z,16.17
2019-06-26T19:42:46.051Z,11.75
2019-06-26T19:45:14.999Z,12.82
2019-06-26T19:47:43.749Z,13.60
2019-06-26T19:50:12.798Z,10.85
2019-06-26T19:52:41.273Z,14.85
2019-06-26T19:55:10.419Z,14.60
2019-06-26T19:57:38.905Z,14.07
2019-06-26T20:00:09.539Z,15.68
2019-06-26T20:02:38.090Z,15.40
2019-06-26T20:05:07.534Z,14.53
2019-06-26T20:07:36.011Z,15.35
2019-06-26T20:10:06.362Z,13.03
2019-06-26T20:12:35.339Z,12.10
2019-06-26T20:15:05.704Z,21.48
2019-06-26T20:17:34.186Z,15.20
2019-06-26T20:20:03.287Z,19.12
2019-06-26T20:22:31.817Z,12.70
2019-06-26T20:25:00.394Z,15.15
2019-06-26T20:27:28.868Z,16.73
2019-06-26T20:29:57.375Z,16.67
2019-06-26T20:32:25.852Z,14.05
2019-06-26T20:34:54.353Z,14.20
2019-06-26T20:37:22.835Z,17.65
2019-06-26T20:39:51.341Z,14.58
2019-06-26T20:42:19.812Z,15.23
2019-06-26T20:44:48.304Z,18.17
2019-06-26T20:47:16.802Z,14.93
2019-06-26T20:49:53.136Z,15.63
2019-06-26T20:52:15.514Z,15.05
2019-06-26T20:54:56.755Z,16.02
2019-06-26T20:57:14.221Z,14.05
2019-06-26T20:59:42.707Z,13.83
2019-06-26T21:02:11.213Z,13.20
2019-06-26T21:04:39.851Z,18.07
2019-06-26T21:07:08.347Z,13.80
2019-06-26T21:09:36.838Z,17.32
2019-06-26T21:12:05.410Z,18.82
2019-06-26T21:14:33.887Z,14.87
2019-06-26T21:17:02.426Z,18.70
2019-06-26T21:19:30.946Z,18.00
2019-06-26T21:21:59.447Z,11.48
2019-06-26T21:24:27.921Z,13.00
2019-06-26T21:26:56.416Z,15.23
2019-06-26T21:29:24.895Z,12.82
2019-06-26T21:31:53.393Z,14.10
2019-06-26T21:34:21.868Z,14.60
2019-06-26T21:36:50.366Z,13.78
2019-06-26T21:39:18.844Z,12.98
2019-06-26T21:41:47.356Z,16.87
2019-06-26T21:44:15.823Z,13.22
2019-06-26T21:46:44.327Z,12.03
2019-06-26T21:49:12.851Z,10.50
2019-06-26T21:51:41.300Z,12.03
2019-06-26T21:54:09.782Z,14.53
2019-06-26T21:56:38.308Z,13.08
2019-06-26T21:59:06.831Z,12.15
2019-06-26T22:01:35.415Z,11.22
2019-06-26T22:04:04.677Z,12.73
2019-06-26T22:06:33.158Z,11.57
2019-06-26T22:09:01.643Z,12.55
2019-06-26T22:11:30.202Z,11.43
2019-06-26T22:13:58.679Z,12.20
2019-06-26T22:16:27.175Z,12.40
2019-06-26T22:18:55.662Z,10.75
2019-06-26T22:21:24.165Z,11.08
2019-06-26T22:23:52.647Z,12.78
2019-06-26T22:26:21.150Z,11.57
2019-06-26T22:28:49.692Z,10.15
2019-06-26T22:31:18.203Z,10.60
2019-06-26T22:33:46.688Z,11.65
2019-06-26T22:36:15.166Z,13.95
2019-06-26T22:38:43.677Z,12.43
2019-06-26T22:41:12.165Z,12.00
2019-06-26T22:43:40.672Z,11.97
2019-06-26T22:46:09.151Z,12.73
2019-06-26T22:48:37.655Z,12.37
2019-06-26T22:51:06.142Z,11.65
2019-06-26T22:53:34.645Z,13.83
2019-06-26T22:56:07.983Z,11.97
2019-06-26T22:58:33.795Z,15.25
2019-06-26T23:01:02.405Z,17.15
2019-06-26T23:03:30.973Z,14.18
2019-06-26T23:05:59.458Z,15.25
2019-06-26T23:08:27.962Z,13.50
2019-06-26T23:10:56.449Z,16.87
2019-06-26T23:13:24.955Z,13.28
2019-06-26T23:15:53.430Z,13.40
2019-06-26T23:18:21.938Z,13.58
2019-06-26T23:20:50.413Z,9.68
2019-06-26T23:23:18.918Z,11.00
2019-06-26T23:25:47.399Z,13.40
2019-06-26T23:28:15.905Z,13.22
2019-06-26T23:30:44.388Z,7.92
2019-06-26T23:33:12.877Z,7.62
2019-06-26T23:35:41.352Z,7.03
2019-06-26T23:38:09.860Z,10.05
2019-06-26T23:40:38.332Z,6.90
2019-06-26T23:43:06.833Z,7.90
2019-06-26T23:45:35.311Z,9.35
2019-06-26T23:48:03.975Z,8.03
2019-06-26T23:50:32.433Z,7.92
2019-06-26T23:53:00.944Z,10.13
2019-06-26T23:55:29.417Z,7.00
2019-06-26T23:57:59.624Z,8.40
